createdAt,value
2019-01-12T00:01:35.254Z,10.90
2019-01-12T00:04:03.864Z,10.27
2019-01-12T00:06:32.507Z,11.63
2019-01-12T00:09:01.148Z,11.03
2019-01-12T00:11:29.824Z,10.63
2019-01-12T00:13:58.398Z,12.70
2019-01-12T00:16:26.961Z,9.27
2019-01-12T00:18:55.638Z,9.87
2019-01-12T00:21:24.198Z,9.17
2019-01-12T00:23:52.771Z,11.73
2019-01-12T00:26:21.443Z,9.03
2019-01-12T00:28:50.013Z,10.17
2019-01-12T00:31:18.647Z,8.60
2019-01-12T00:33:47.319Z,10.63
2019-01-12T00:36:15.950Z,11.33
2019-01-12T00:38:44.510Z,9.10
2019-01-12T00:41:13.838Z,9.87
2019-01-12T00:43:42.583Z,9.73
2019-01-12T00:46:11.210Z,9.23
2019-01-12T00:48:39.744Z,9.07
2019-01-12T00:51:08.321Z,10.63
2019-01-12T00:53:36.909Z,11.07
2019-01-12T00:56:05.495Z,8.47
2019-01-12T00:58:34.124Z,6.80
2019-01-12T01:01:02.687Z,6.83
2019-01-12T01:03:31.291Z,9.30
2019-01-12T01:05:59.857Z,8.37
2019-01-12T01:08:28.492Z,9.97
2019-01-12T01:10:57.097Z,10.47
2019-01-12T01:13:25.656Z,7.43
2019-01-12T01:15:54.217Z,8.03
2019-01-12T01:18:22.830Z,8.77
2019-01-12T01:20:51.663Z,8.23
2019-01-12T01:23:20.224Z,8.97
2019-01-12T01:25:48.895Z,8.70
2019-01-12T01:28:17.544Z,8.10
2019-01-12T01:30:46.178Z,8.60
2019-01-12T01:33:14.868Z,7.60
2019-01-12T01:35:43.431Z,8.13
2019-01-12T01:38:11.995Z,6.63
2019-01-12T01:40:40.697Z,5.93
2019-01-12T01:43:09.265Z,5.43
2019-01-12T01:45:37.826Z,5.93
2019-01-12T01:48:06.419Z,6.63
2019-01-12T01:50:34.984Z,5.90
2019-01-12T01:53:03.617Z,6.17
2019-01-12T01:55:32.236Z,5.27
2019-01-12T01:58:00.790Z,5.67
2019-01-12T02:00:29.354Z,6.57
2019-01-12T02:02:57.959Z,6.47
2019-01-12T02:05:26.595Z,5.43
2019-01-12T02:07:55.228Z,5.73
2019-01-12T02:10:24.276Z,5.63
2019-01-12T02:12:52.860Z,6.17
2019-01-12T02:15:23.081Z,5.53
2019-01-12T02:17:51.759Z,6.93
2019-01-12T02:20:20.255Z,7.30
2019-01-12T02:22:48.826Z,5.67
2019-01-12T02:25:17.355Z,5.80
2019-01-12T02:27:45.919Z,6.37
2019-01-12T02:30:22.951Z,5.10
2019-01-12T02:32:51.438Z,4.10
2019-01-12T02:35:20.000Z,6.50
2019-01-12T02:37:48.621Z,5.13
2019-01-12T02:40:17.308Z,5.03
2019-01-12T02:42:45.802Z,3.73
2019-01-12T02:45:14.579Z,3.93
2019-01-12T02:47:43.143Z,4.17
2019-01-12T02:50:12.914Z,5.23
2019-01-12T02:52:41.596Z,4.93
2019-01-12T02:55:10.218Z,2.80
2019-01-12T02:57:38.777Z,3.50
2019-01-12T03:00:16.565Z,4.57
2019-01-12T03:02:45.134Z,4.30
2019-01-12T03:05:13.639Z,4.60
2019-01-12T03:07:42.327Z,3.97
2019-01-12T03:10:12.898Z,4.73
2019-01-12T03:12:41.455Z,3.83
2019-01-12T03:15:12.750Z,2.97
2019-01-12T03:17:41.367Z,3.23
2019-01-12T03:20:13.048Z,3.87
2019-01-12T03:22:41.727Z,3.90
2019-01-12T03:25:17.536Z,4.47
2019-01-12T03:27:40.566Z,4.90
2019-01-12T03:30:12.233Z,4.20
2019-01-12T03:32:40.814Z,3.57
2019-01-12T03:35:09.296Z,4.17
2019-01-12T03:37:37.961Z,4.33
2019-01-12T03:40:12.196Z,4.10
2019-01-12T03:42:40.702Z,4.73
2019-01-12T03:45:11.599Z,4.93
2019-01-12T03:47:40.233Z,4.27
2019-01-12T03:50:10.728Z,5.30
2019-01-12T03:52:39.336Z,4.13
2019-01-12T03:55:07.897Z,5.17
2019-01-12T03:57:36.397Z,4.43
2019-01-12T04:00:19.189Z,6.50
2019-01-12T04:02:47.815Z,5.33
2019-01-12T04:05:16.833Z,4.37
2019-01-12T04:07:45.364Z,5.27
2019-01-12T04:10:14.023Z,5.63
2019-01-12T04:12:42.589Z,6.83
2019-01-12T04:15:14.253Z,5.10
2019-01-12T04:17:42.751Z,6.00
2019-01-12T04:20:13.587Z,6.40
2019-01-12T04:22:42.201Z,6.13
2019-01-12T04:25:10.763Z,6.40
2019-01-12T04:27:39.343Z,7.20
2019-01-12T04:30:13.992Z,7.53
2019-01-12T04:32:42.563Z,7.80
2019-01-12T04:35:11.126Z,9.60
2019-01-12T04:37:39.739Z,8.60
2019-01-12T04:40:11.468Z,9.30
2019-01-12T04:42:40.027Z,7.30
2019-01-12T04:45:09.340Z,8.63
2019-01-12T04:47:37.900Z,7.83
2019-01-12T04:50:09.500Z,9.27
2019-01-12T04:52:38.186Z,8.53
2019-01-12T04:55:07.050Z,6.97
2019-01-12T04:57:35.610Z,7.20
2019-01-12T05:00:06.207Z,8.17
2019-01-12T05:02:34.770Z,8.40
2019-01-12T05:05:03.335Z,8.53
2019-01-12T05:07:31.850Z,9.30
2019-01-12T05:10:00.383Z,7.40
2019-01-12T05:12:28.845Z,7.60
2019-01-12T05:14:57.450Z,10.13
2019-01-12T05:17:26.013Z,7.53
2019-01-12T05:19:54.578Z,9.70
2019-01-12T05:22:23.183Z,10.03
2019-01-12T05:24:51.749Z,8.17
2019-01-12T05:27:20.320Z,10.03
2019-01-12T05:29:48.917Z,8.33
2019-01-12T05:32:17.411Z,8.70
2019-01-12T05:34:45.987Z,7.57
2019-01-12T05:37:14.595Z,8.40
2019-01-12T05:39:43.148Z,8.17
2019-01-12T05:42:11.637Z,9.40
2019-01-12T05:44:40.254Z,8.40
2019-01-12T05:47:08.816Z,7.03
2019-01-12T05:49:37.380Z,8.70
2019-01-12T05:52:05.926Z,9.83
2019-01-12T05:54:34.487Z,8.43
2019-01-12T05:57:02.995Z,8.57
2019-01-12T05:59:31.587Z,8.10
2019-01-12T06:02:00.159Z,7.93
2019-01-12T06:04:28.735Z,7.10
2019-01-12T06:06:57.344Z,8.37
2019-01-12T06:09:25.909Z,7.33
2019-01-12T06:11:54.539Z,6.70
2019-01-12T06:14:23.138Z,7.17
2019-01-12T06:16:51.706Z,7.20
2019-01-12T06:19:20.327Z,7.53
2019-01-12T06:21:48.936Z,7.10
2019-01-12T06:24:17.493Z,7.30
2019-01-12T06:26:46.072Z,6.87
2019-01-12T06:29:14.741Z,6.90
2019-01-12T06:31:43.252Z,6.23
2019-01-12T06:34:11.898Z,7.40
2019-01-12T06:36:40.495Z,6.53
2019-01-12T06:39:09.369Z,5.20
2019-01-12T06:41:37.998Z,6.80
2019-01-12T06:44:06.626Z,6.43
2019-01-12T06:46:35.185Z,5.27
2019-01-12T06:49:03.746Z,4.17
2019-01-12T06:51:32.354Z,5.57
2019-01-12T06:54:00.911Z,3.97
2019-01-12T06:56:29.473Z,4.97
2019-01-12T06:58:58.147Z,4.93
2019-01-12T07:01:26.702Z,5.50
2019-01-12T07:03:55.337Z,4.70
2019-01-12T07:06:24.797Z,5.47
2019-01-12T07:08:53.288Z,5.23
2019-01-12T07:11:21.779Z,5.53
2019-01-12T07:13:50.451Z,6.73
2019-01-12T07:16:19.090Z,5.57
2019-01-12T07:18:47.637Z,6.30
2019-01-12T07:21:16.315Z,6.70
2019-01-12T07:23:44.872Z,5.97
2019-01-12T07:26:17.487Z,5.00
2019-01-12T07:28:43.978Z,6.00
2019-01-12T07:31:12.609Z,7.50
2019-01-12T07:33:41.235Z,5.80
2019-01-12T07:36:09.910Z,4.83
2019-01-12T07:38:38.554Z,6.63
2019-01-12T07:41:07.198Z,5.57
2019-01-12T07:43:35.814Z,5.00
2019-01-12T07:46:04.458Z,5.97
2019-01-12T07:48:33.023Z,5.73
2019-01-12T07:51:01.656Z,5.83
2019-01-12T07:53:30.358Z,5.17
2019-01-12T07:55:58.923Z,5.00
2019-01-12T07:58:27.599Z,5.30
2019-01-12T08:00:56.164Z,6.07
2019-01-12T08:03:24.814Z,6.20
2019-01-12T08:05:53.426Z,6.93
2019-01-12T08:08:22.050Z,7.17
2019-01-12T08:10:50.672Z,6.77
2019-01-12T08:13:19.307Z,5.40
2019-01-12T08:15:47.936Z,6.00
2019-01-12T08:18:16.451Z,5.93
2019-01-12T08:20:45.042Z,6.10
2019-01-12T08:23:13.681Z,4.93
2019-01-12T08:25:42.316Z,6.97
2019-01-12T08:28:10.925Z,7.27
2019-01-12T08:30:39.481Z,6.97
2019-01-12T08:33:08.047Z,7.37
2019-01-12T08:35:37.044Z,9.90
2019-01-12T08:38:05.535Z,8.17
2019-01-12T08:40:34.174Z,10.30
2019-01-12T08:43:02.848Z,8.70
2019-01-12T08:45:31.410Z,9.07
2019-01-12T08:47:59.976Z,9.27
2019-01-12T08:50:28.656Z,10.63
2019-01-12T08:52:57.210Z,8.90
2019-01-12T08:55:25.776Z,10.70
2019-01-12T08:57:54.320Z,9.40
2019-01-12T09:00:22.875Z,9.30
2019-01-12T09:02:51.445Z,12.10
2019-01-12T09:05:20.057Z,11.93
2019-01-12T09:07:48.703Z,9.33
2019-01-12T09:10:19.650Z,8.97
2019-01-12T09:12:48.508Z,9.13
2019-01-12T09:15:17.222Z,16.77
2019-01-12T09:17:45.799Z,11.60
2019-01-12T09:20:15.499Z,14.60
2019-01-12T09:22:44.343Z,8.67
2019-01-12T09:25:13.802Z,26.63
2019-01-12T09:27:42.372Z,36.20
2019-01-12T09:30:14.548Z,46.70
2019-01-12T09:32:43.108Z,77.47
2019-01-12T09:35:11.720Z,9.73
2019-01-12T09:37:40.284Z,6.80
2019-01-12T09:40:12.020Z,8.67
2019-01-12T09:42:40.571Z,10.93
2019-01-12T09:45:10.842Z,8.73
2019-01-12T09:47:39.419Z,9.40
2019-01-12T09:50:13.388Z,10.17
2019-01-12T09:52:42.315Z,7.53
2019-01-12T09:55:12.532Z,8.93
2019-01-12T09:57:41.135Z,7.50
2019-01-12T10:00:15.826Z,7.83
2019-01-12T10:02:44.404Z,10.37
2019-01-12T10:05:13.006Z,8.83
2019-01-12T10:07:41.571Z,9.47
2019-01-12T10:10:17.928Z,8.40
2019-01-12T10:12:46.487Z,8.27
2019-01-12T10:15:15.059Z,7.07
2019-01-12T10:17:43.614Z,7.23
2019-01-12T10:20:18.647Z,6.50
2019-01-12T10:22:47.132Z,7.20
2019-01-12T10:25:16.136Z,6.87
2019-01-12T10:27:44.696Z,9.93
2019-01-12T10:30:18.794Z,9.17
2019-01-12T10:32:47.474Z,11.43
2019-01-12T10:35:16.107Z,9.03
2019-01-12T10:37:44.657Z,7.83
2019-01-12T10:40:16.721Z,7.13
2019-01-12T10:42:45.250Z,7.57
2019-01-12T10:45:15.635Z,11.03
2019-01-12T10:47:44.230Z,8.23
2019-01-12T10:50:16.157Z,9.10
2019-01-12T10:52:44.811Z,6.37
2019-01-12T10:55:14.408Z,9.57
2019-01-12T10:57:43.548Z,8.47
2019-01-12T11:00:17.529Z,7.53
2019-01-12T11:02:46.232Z,8.47
2019-01-12T11:05:15.019Z,10.93
2019-01-12T11:07:43.566Z,10.07
2019-01-12T11:10:13.359Z,9.27
2019-01-12T11:12:44.557Z,8.93
2019-01-12T11:15:21.023Z,9.73
2019-01-12T11:17:49.515Z,6.53
2019-01-12T11:20:18.142Z,8.57
2019-01-12T11:22:46.925Z,9.03
2019-01-12T11:25:16.418Z,9.87
2019-01-12T11:27:45.411Z,8.93
2019-01-12T11:30:19.252Z,8.50
2019-01-12T11:32:47.938Z,7.13
2019-01-12T11:35:16.489Z,8.53
2019-01-12T11:37:45.168Z,7.47
2019-01-12T11:40:16.762Z,10.80
2019-01-12T11:42:45.332Z,9.70
2019-01-12T11:45:13.934Z,10.03
2019-01-12T11:47:42.511Z,139.03
2019-01-12T11:50:13.452Z,6.17
2019-01-12T11:52:42.050Z,7.47
2019-01-12T11:55:12.748Z,9.00
2019-01-12T11:57:41.492Z,8.00
2019-01-12T12:00:15.953Z,6.53
2019-01-12T12:02:44.515Z,8.00
2019-01-12T12:05:13.165Z,7.93
2019-01-12T12:07:41.859Z,8.30
2019-01-12T12:10:12.671Z,7.63
2019-01-12T12:12:41.244Z,8.17
2019-01-12T12:15:12.725Z,8.93
2019-01-12T12:17:41.288Z,8.37
2019-01-12T12:20:15.520Z,8.90
2019-01-12T12:22:44.139Z,8.90
2019-01-12T12:25:12.786Z,8.00
2019-01-12T12:27:41.355Z,11.53
2019-01-12T12:30:15.770Z,7.93
2019-01-12T12:32:44.264Z,9.00
2019-01-12T12:35:12.934Z,9.87
2019-01-12T12:37:43.162Z,8.20
2019-01-12T12:40:17.016Z,9.40
2019-01-12T12:42:45.617Z,8.13
2019-01-12T12:45:16.879Z,9.40
2019-01-12T12:47:45.583Z,8.17
2019-01-12T12:50:15.645Z,8.90
2019-01-12T12:52:44.300Z,10.33
2019-01-12T12:55:14.728Z,10.90
2019-01-12T12:57:43.341Z,6.17
2019-01-12T13:00:32.863Z,10.13
2019-01-12T13:03:01.381Z,8.33
2019-01-12T13:05:30.047Z,7.20
2019-01-12T13:07:58.753Z,9.00
2019-01-12T13:10:28.508Z,9.13
2019-01-12T13:12:57.076Z,7.83
2019-01-12T13:15:25.762Z,8.33
2019-01-12T13:17:54.323Z,8.13
2019-01-12T13:20:22.983Z,7.40
2019-01-12T13:22:51.585Z,6.30
2019-01-12T13:25:20.268Z,7.93
2019-01-12T13:27:48.907Z,6.37
2019-01-12T13:30:22.592Z,8.17
2019-01-12T13:32:51.228Z,8.00
2019-01-12T13:35:19.893Z,8.07
2019-01-12T13:37:48.515Z,8.37
2019-01-12T13:40:19.467Z,7.33
2019-01-12T13:42:48.054Z,80.17
2019-01-12T13:45:18.575Z,95.23
2019-01-12T13:47:47.140Z,100.57
2019-01-12T13:50:18.279Z,92.50
2019-01-12T13:52:46.881Z,22.57
2019-01-12T13:55:17.924Z,6.20
2019-01-12T13:57:47.968Z,8.30
2019-01-12T14:00:25.475Z,8.93
2019-01-12T14:02:54.127Z,8.57
2019-01-12T14:05:23.138Z,7.83
2019-01-12T14:07:56.157Z,7.07
2019-01-12T14:10:22.036Z,9.07
2019-01-12T14:12:50.710Z,9.43
2019-01-12T14:15:19.614Z,9.37
2019-01-12T14:17:48.233Z,8.90
2019-01-12T14:20:27.761Z,9.07
2019-01-12T14:22:56.432Z,11.93
2019-01-12T14:25:25.096Z,10.33
2019-01-12T14:27:54.968Z,8.13
2019-01-12T14:30:23.721Z,10.77
2019-01-12T14:32:52.464Z,10.00
2019-01-12T14:35:21.258Z,32.97
2019-01-12T14:37:49.917Z,49.07
2019-01-12T14:40:19.551Z,57.73
2019-01-12T14:42:48.244Z,84.13
2019-01-12T14:45:25.184Z,47.07
2019-01-12T14:47:53.859Z,18.00
2019-01-12T14:50:24.074Z,38.10
2019-01-12T14:52:52.714Z,37.93
2019-01-12T14:55:22.814Z,51.30
2019-01-12T14:57:51.380Z,40.57
2019-01-12T15:00:25.696Z,76.10
2019-01-12T15:02:54.260Z,13.93
2019-01-12T15:05:28.010Z,9.50
2019-01-12T15:07:56.617Z,11.17
2019-01-12T15:10:25.291Z,10.27
2019-01-12T15:12:53.948Z,9.43
2019-01-12T15:15:22.565Z,9.70
2019-01-12T15:17:51.167Z,28.13
2019-01-12T15:20:22.364Z,9.13
2019-01-12T15:22:51.011Z,8.93
2019-01-12T15:25:19.708Z,9.60
2019-01-12T15:27:48.367Z,12.33
2019-01-12T15:30:23.327Z,7.80
2019-01-12T15:32:51.964Z,9.83
2019-01-12T15:35:21.528Z,8.90
2019-01-12T15:37:50.094Z,9.70
2019-01-12T15:40:20.730Z,6.13
2019-01-12T15:42:49.359Z,9.87
2019-01-12T15:45:23.599Z,10.33
2019-01-12T15:47:52.251Z,8.23
2019-01-12T15:50:22.892Z,11.43
2019-01-12T15:52:51.495Z,9.80
2019-01-12T15:55:20.221Z,9.53
2019-01-12T15:57:48.853Z,7.77
2019-01-12T16:00:19.838Z,11.87
2019-01-12T16:02:48.445Z,8.80
2019-01-12T16:05:17.158Z,10.33
2019-01-12T16:07:45.869Z,8.57
2019-01-12T16:10:15.189Z,7.37
2019-01-12T16:12:43.824Z,6.37
2019-01-12T16:15:15.299Z,7.40
2019-01-12T16:17:43.944Z,6.67
2019-01-12T16:20:18.147Z,7.47
2019-01-12T16:22:46.770Z,8.10
2019-01-12T16:25:15.334Z,8.50
2019-01-12T16:27:43.964Z,9.00
2019-01-12T16:30:18.043Z,9.67
2019-01-12T16:32:47.145Z,9.30
2019-01-12T16:35:15.708Z,7.60
2019-01-12T16:37:44.497Z,9.00
2019-01-12T16:40:18.444Z,8.77
2019-01-12T16:42:47.442Z,15.67
2019-01-12T16:45:16.717Z,8.37
2019-01-12T16:47:45.213Z,14.17
2019-01-12T16:50:13.790Z,9.83
2019-01-12T16:52:42.401Z,9.30
2019-01-12T16:55:13.642Z,9.23
2019-01-12T16:57:42.192Z,8.03
2019-01-12T17:00:21.799Z,9.53
2019-01-12T17:02:50.447Z,6.63
2019-01-12T17:05:19.039Z,7.03
2019-01-12T17:07:47.622Z,7.57
2019-01-12T17:10:18.722Z,6.30
2019-01-12T17:12:47.308Z,15.07
2019-01-12T17:15:18.088Z,7.73
2019-01-12T17:17:46.647Z,7.03
2019-01-12T17:20:20.973Z,7.23
2019-01-12T17:22:50.390Z,5.77
2019-01-12T17:25:19.857Z,6.20
2019-01-12T17:27:48.415Z,7.60
2019-01-12T17:30:19.099Z,6.70
2019-01-12T17:32:47.743Z,6.17
2019-01-12T17:35:16.242Z,6.90
2019-01-12T17:37:45.723Z,5.53
2019-01-12T17:40:15.544Z,6.70
2019-01-12T17:42:44.182Z,7.43
2019-01-12T17:45:20.598Z,65.97
2019-01-12T17:47:49.220Z,93.13
2019-01-12T17:50:19.619Z,239.73
2019-01-12T17:52:48.230Z,7.63
2019-01-12T17:55:19.334Z,4.97
2019-01-12T17:57:47.973Z,6.93
2019-01-12T18:00:28.446Z,6.83
2019-01-12T18:02:57.078Z,6.03
2019-01-12T18:05:25.653Z,6.00
2019-01-12T18:07:54.285Z,7.57
2019-01-12T18:10:22.858Z,6.73
2019-01-12T18:12:51.504Z,7.00
2019-01-12T18:15:20.174Z,7.93
2019-01-12T18:17:48.822Z,7.77
2019-01-12T18:20:18.686Z,7.70
2019-01-12T18:22:47.257Z,7.87
2019-01-12T18:25:16.929Z,7.20
2019-01-12T18:27:45.698Z,7.10
2019-01-12T18:30:17.456Z,5.47
2019-01-12T18:32:46.038Z,7.80
2019-01-12T18:35:14.598Z,4.73
2019-01-12T18:37:43.341Z,4.47
2019-01-12T18:40:17.344Z,7.17
2019-01-12T18:42:46.271Z,5.63
2019-01-12T18:45:16.770Z,5.80
2019-01-12T18:47:45.349Z,6.73
2019-01-12T18:50:16.565Z,5.93
2019-01-12T18:52:45.239Z,6.80
2019-01-12T18:55:14.365Z,6.50
2019-01-12T18:57:43.353Z,5.40
2019-01-12T19:00:19.979Z,6.70
2019-01-12T19:02:48.560Z,8.33
2019-01-12T19:05:17.123Z,4.50
2019-01-12T19:07:45.741Z,7.50
2019-01-12T19:10:14.783Z,4.53
2019-01-12T19:12:43.288Z,5.83
2019-01-12T19:15:17.337Z,5.80
2019-01-12T19:17:45.913Z,4.30
2019-01-12T19:20:16.087Z,5.47
2019-01-12T19:22:44.870Z,6.10
2019-01-12T19:25:14.706Z,6.33
2019-01-12T19:27:44.281Z,4.37
2019-01-12T19:30:17.900Z,5.87
2019-01-12T19:32:46.549Z,3.43
2019-01-12T19:35:15.619Z,2.97
2019-01-12T19:37:44.357Z,5.63
2019-01-12T19:40:15.283Z,5.03
2019-01-12T19:42:44.029Z,91.77
2019-01-12T19:45:14.357Z,89.80
2019-01-12T19:47:43.022Z,88.83
2019-01-12T19:50:19.621Z,93.57
2019-01-12T19:52:48.266Z,93.33
2019-01-12T19:55:17.004Z,93.80
2019-01-12T19:57:45.733Z,91.90
2019-01-12T20:00:19.876Z,84.97
2019-01-12T20:02:48.559Z,89.23
2019-01-12T20:05:17.252Z,81.63
2019-01-12T20:07:45.908Z,91.00
2019-01-12T20:10:16.481Z,90.50
2019-01-12T20:12:45.187Z,95.27
2019-01-12T20:15:17.041Z,90.07
2019-01-12T20:17:45.725Z,92.17
2019-01-12T20:20:15.520Z,86.70
2019-01-12T20:22:44.281Z,90.27
2019-01-12T20:25:16.190Z,90.03
2019-01-12T20:27:44.867Z,84.90
2019-01-12T20:30:17.108Z,79.80
2019-01-12T20:32:51.907Z,80.50
2019-01-12T20:35:26.383Z,82.40
2019-01-12T20:38:09.989Z,83.53
2019-01-12T20:40:44.629Z,82.97
2019-01-12T20:43:16.435Z,79.37
2019-01-12T20:46:12.249Z,79.40
2019-01-12T20:48:52.568Z,78.27
2019-01-12T20:51:45.192Z,84.97
2019-01-12T20:54:47.714Z,84.93
2019-01-12T20:57:39.077Z,79.93
2019-01-12T21:00:44.494Z,81.37
2019-01-12T21:03:29.093Z,80.77
2019-01-12T21:06:03.517Z,81.50
2019-01-12T21:08:42.703Z,84.77
2019-01-12T21:11:34.249Z,79.60
2019-01-12T21:14:14.843Z,82.67
2019-01-12T21:16:43.471Z,79.73
2019-01-12T21:19:12.107Z,80.10
2019-01-12T21:21:41.122Z,82.17
2019-01-12T21:24:09.793Z,79.77
2019-01-12T21:26:38.450Z,80.27
2019-01-12T21:29:07.022Z,80.47
2019-01-12T21:31:36.585Z,81.07
2019-01-12T21:34:05.178Z,80.07
2019-01-12T21:36:35.289Z,81.70
2019-01-12T21:39:05.529Z,81.17
2019-01-12T21:41:34.074Z,81.83
2019-01-12T21:44:02.745Z,78.30
2019-01-12T21:46:31.366Z,79.30
2019-01-12T21:49:00.013Z,78.63
2019-01-12T21:51:28.659Z,80.70
2019-01-12T21:53:57.358Z,80.47
2019-01-12T21:56:25.991Z,81.60
2019-01-12T21:58:54.649Z,75.87
2019-01-12T22:01:23.341Z,80.77
2019-01-12T22:03:51.902Z,76.77
2019-01-12T22:06:20.492Z,66.87
2019-01-12T22:08:49.225Z,68.83
2019-01-12T22:11:17.870Z,76.60
2019-01-12T22:13:46.859Z,82.13
2019-01-12T22:16:15.512Z,80.63
2019-01-12T22:18:44.164Z,76.33
2019-01-12T22:21:12.667Z,82.70
2019-01-12T22:23:41.385Z,79.83
2019-01-12T22:26:10.000Z,72.43
2019-01-12T22:28:39.106Z,75.37
2019-01-12T22:31:07.783Z,77.17
2019-01-12T22:33:37.328Z,71.07
2019-01-12T22:36:05.839Z,76.63
2019-01-12T22:38:34.454Z,80.20
2019-01-12T22:41:03.095Z,81.80
2019-01-12T22:43:31.670Z,83.20
2019-01-12T22:46:00.277Z,82.33
2019-01-12T22:48:28.851Z,81.00
2019-01-12T22:50:57.490Z,78.43
2019-01-12T22:53:26.177Z,80.37
2019-01-12T22:55:54.857Z,76.37
2019-01-12T22:58:23.551Z,84.63
2019-01-12T23:00:55.619Z,74.70
2019-01-12T23:03:24.316Z,83.87
2019-01-12T23:05:52.965Z,76.93
2019-01-12T23:08:21.647Z,76.40
2019-01-12T23:10:50.276Z,75.93
2019-01-12T23:13:18.922Z,74.27
2019-01-12T23:15:47.612Z,67.00
2019-01-12T23:18:16.256Z,70.67
2019-01-12T23:20:44.858Z,72.70
2019-01-12T23:23:13.537Z,71.70
2019-01-12T23:25:42.261Z,64.50
2019-01-12T23:28:10.821Z,62.57
2019-01-12T23:30:39.533Z,61.87
2019-01-12T23:33:08.167Z,67.13
2019-01-12T23:35:37.672Z,81.10
2019-01-12T23:38:06.362Z,69.73
2019-01-12T23:40:35.009Z,68.60
2019-01-12T23:43:03.664Z,59.90
2019-01-12T23:45:32.349Z,66.30
2019-01-12T23:48:00.949Z,59.60
2019-01-12T23:50:29.604Z,52.80
2019-01-12T23:52:58.261Z,50.17
2019-01-12T23:55:26.897Z,54.43
2019-01-12T23:57:57.101Z,63.73
